METAR Data
IDs: Format: Raw Decoded Include TAF

Data at: 0920 UTC 26 May 2019

METAR for:EBBE (Beauvechain(AB), --, BX)
Text:EBBE 260855Z AUTO 24011KT 9999 FEW014/// BKN075/// 16/13 Q1016 BLU
Temperature: 16.0°C ( 61°F)
Dewpoint: 13.0°C ( 55°F) [RH = 82%]
Pressure (altimeter):30.00 inches Hg (1016.0 mb)
Winds:from the WSW (240 degrees) at 13 MPH (11 knots; 5.7 m/s)
Visibility:6 or more sm (10+ km)
Ceiling:7500 feet AGL
Clouds: few clouds at 1400 feet AGL, broken clouds at 7500 feet AGL

TAF for:EBBE (Beauvechain(AB), --, BX)
Text:No data found